sensor_id;sensor_type;location;lat;lon;timestamp;temperature;humidity
76613;DHT22;65507;48.454;-2.058;2023-11-25T00:00:19;7.60;81.70
76613;DHT22;65507;48.454;-2.058;2023-11-25T00:02:48;7.50;81.60
76613;DHT22;65507;48.454;-2.058;2023-11-25T00:05:14;7.50;81.70
76613;DHT22;65507;48.454;-2.058;2023-11-25T00:07:40;7.50;81.80
76613;DHT22;65507;48.454;-2.058;2023-11-25T00:10:06;7.50;81.80
76613;DHT22;65507;48.454;-2.058;2023-11-25T00:12:33;7.40;81.70
76613;DHT22;65507;48.454;-2.058;2023-11-25T00:14:59;7.40;81.70
76613;DHT22;65507;48.454;-2.058;2023-11-25T00:17:25;7.40;81.70
76613;DHT22;65507;48.454;-2.058;2023-11-25T00:19:57;7.30;81.80
76613;DHT22;65507;48.454;-2.058;2023-11-25T00:22:23;7.30;82.00
76613;DHT22;65507;48.454;-2.058;2023-11-25T00:24:49;7.20;82.00
76613;DHT22;65507;48.454;-2.058;2023-11-25T00:27:17;7.20;82.10
76613;DHT22;65507;48.454;-2.058;2023-11-25T00:29:42;7.20;82.10
76613;DHT22;65507;48.454;-2.058;2023-11-25T00:32:08;7.10;82.10
76613;DHT22;65507;48.454;-2.058;2023-11-25T00:34:34;7.10;82.20
76613;DHT22;65507;48.454;-2.058;2023-11-25T00:37:00;7.10;82.20
76613;DHT22;65507;48.454;-2.058;2023-11-25T00:39:26;7.10;82.20
76613;DHT22;65507;48.454;-2.058;2023-11-25T00:41:53;7.10;82.20
76613;DHT22;65507;48.454;-2.058;2023-11-25T00:44:19;7.00;82.10
76613;DHT22;65507;48.454;-2.058;2023-11-25T00:46:45;7.10;82.20
76613;DHT22;65507;48.454;-2.058;2023-11-25T00:49:10;7.00;82.30
76613;DHT22;65507;48.454;-2.058;2023-11-25T00:51:39;6.90;82.20
76613;DHT22;65507;48.454;-2.058;2023-11-25T00:54:05;6.90;82.30
76613;DHT22;65507;48.454;-2.058;2023-11-25T00:56:31;6.80;82.40
76613;DHT22;65507;48.454;-2.058;2023-11-25T00:58:57;6.80;82.60
76613;DHT22;65507;48.454;-2.058;2023-11-25T01:01:23;6.90;82.80
76613;DHT22;65507;48.454;-2.058;2023-11-25T01:03:49;6.80;82.70
76613;DHT22;65507;48.454;-2.058;2023-11-25T01:06:14;6.80;82.60
76613;DHT22;65507;48.454;-2.058;2023-11-25T01:08:40;6.80;82.40
76613;DHT22;65507;48.454;-2.058;2023-11-25T01:11:06;6.90;82.30
76613;DHT22;65507;48.454;-2.058;2023-11-25T01:13:31;6.90;82.20
76613;DHT22;65507;48.454;-2.058;2023-11-25T01:15:57;7.00;82.10
76613;DHT22;65507;48.454;-2.058;2023-11-25T01:18:23;6.90;81.90
76613;DHT22;65507;48.454;-2.058;2023-11-25T01:20:49;6.90;81.90
76613;DHT22;65507;48.454;-2.058;2023-11-25T01:23:14;6.80;82.00
76613;DHT22;65507;48.454;-2.058;2023-11-25T01:25:43;6.80;82.10
76613;DHT22;65507;48.454;-2.058;2023-11-25T01:28:08;6.80;82.20
76613;DHT22;65507;48.454;-2.058;2023-11-25T01:30:35;6.80;82.20
76613;DHT22;65507;48.454;-2.058;2023-11-25T01:33:04;6.80;82.20
76613;DHT22;65507;48.454;-2.058;2023-11-25T01:35:32;6.80;82.10
76613;DHT22;65507;48.454;-2.058;2023-11-25T01:37:58;6.80;82.00
76613;DHT22;65507;48.454;-2.058;2023-11-25T01:40:24;6.80;82.00
76613;DHT22;65507;48.454;-2.058;2023-11-25T01:42:50;6.70;82.00
76613;DHT22;65507;48.454;-2.058;2023-11-25T01:45:23;6.60;82.20
76613;DHT22;65507;48.454;-2.058;2023-11-25T01:47:50;6.60;82.40
76613;DHT22;65507;48.454;-2.058;2023-11-25T01:50:18;6.50;82.50
76613;DHT22;65507;48.454;-2.058;2023-11-25T01:52:45;6.50;82.60
76613;DHT22;65507;48.454;-2.058;2023-11-25T01:55:12;6.50;82.60
76613;DHT22;65507;48.454;-2.058;2023-11-25T01:57:38;6.50;82.70
76613;DHT22;65507;48.454;-2.058;2023-11-25T02:00:06;6.50;82.70
76613;DHT22;65507;48.454;-2.058;2023-11-25T02:02:35;6.50;82.70
76613;DHT22;65507;48.454;-2.058;2023-11-25T02:05:01;6.50;82.50
76613;DHT22;65507;48.454;-2.058;2023-11-25T02:07:27;6.50;82.30
76613;DHT22;65507;48.454;-2.058;2023-11-25T02:09:53;6.40;82.40
76613;DHT22;65507;48.454;-2.058;2023-11-25T02:12:21;6.40;82.70
76613;DHT22;65507;48.454;-2.058;2023-11-25T02:14:47;6.20;82.70
76613;DHT22;65507;48.454;-2.058;2023-11-25T02:17:14;6.30;82.80
76613;DHT22;65507;48.454;-2.058;2023-11-25T02:19:42;6.30;82.80
76613;DHT22;65507;48.454;-2.058;2023-11-25T02:22:11;6.20;82.80
76613;DHT22;65507;48.454;-2.058;2023-11-25T02:24:37;6.20;82.90
76613;DHT22;65507;48.454;-2.058;2023-11-25T02:27:04;6.10;83.00
76613;DHT22;65507;48.454;-2.058;2023-11-25T02:29:31;6.10;83.40
76613;DHT22;65507;48.454;-2.058;2023-11-25T02:31:58;6.10;83.30
76613;DHT22;65507;48.454;-2.058;2023-11-25T02:34:27;6.10;83.30
76613;DHT22;65507;48.454;-2.058;2023-11-25T02:36:52;6.10;83.30
76613;DHT22;65507;48.454;-2.058;2023-11-25T02:39:19;6.10;83.20
76613;DHT22;65507;48.454;-2.058;2023-11-25T02:41:48;6.00;83.10
76613;DHT22;65507;48.454;-2.058;2023-11-25T02:44:15;6.10;83.20
76613;DHT22;65507;48.454;-2.058;2023-11-25T02:46:45;6.10;83.20
76613;DHT22;65507;48.454;-2.058;2023-11-25T02:49:12;6.00;83.00
76613;DHT22;65507;48.454;-2.058;2023-11-25T02:51:38;6.10;83.10
76613;DHT22;65507;48.454;-2.058;2023-11-25T02:54:04;6.10;83.00
76613;DHT22;65507;48.454;-2.058;2023-11-25T02:56:32;6.10;83.00
76613;DHT22;65507;48.454;-2.058;2023-11-25T02:58:58;6.00;82.90
76613;DHT22;65507;48.454;-2.058;2023-11-25T03:01:24;6.00;82.90
76613;DHT22;65507;48.454;-2.058;2023-11-25T03:03:55;5.90;83.10
76613;DHT22;65507;48.454;-2.058;2023-11-25T03:06:25;5.90;83.30
76613;DHT22;65507;48.454;-2.058;2023-11-25T03:08:52;5.90;83.30
76613;DHT22;65507;48.454;-2.058;2023-11-25T03:11:21;5.90;83.20
76613;DHT22;65507;48.454;-2.058;2023-11-25T03:13:47;5.90;83.20
76613;DHT22;65507;48.454;-2.058;2023-11-25T03:16:13;5.90;83.20
76613;DHT22;65507;48.454;-2.058;2023-11-25T03:18:39;5.90;83.00
76613;DHT22;65507;48.454;-2.058;2023-11-25T03:21:06;5.90;83.00
76613;DHT22;65507;48.454;-2.058;2023-11-25T03:23:32;5.90;83.10
76613;DHT22;65507;48.454;-2.058;2023-11-25T03:25:57;5.90;83.10
76613;DHT22;65507;48.454;-2.058;2023-11-25T03:28:23;5.80;83.20
76613;DHT22;65507;48.454;-2.058;2023-11-25T03:30:50;5.80;83.10
76613;DHT22;65507;48.454;-2.058;2023-11-25T03:33:16;5.80;83.00
76613;DHT22;65507;48.454;-2.058;2023-11-25T03:35:41;5.80;83.10
76613;DHT22;65507;48.454;-2.058;2023-11-25T03:38:07;5.80;83.10
76613;DHT22;65507;48.454;-2.058;2023-11-25T03:40:34;5.80;83.10
76613;DHT22;65507;48.454;-2.058;2023-11-25T03:43:00;5.80;83.00
76613;DHT22;65507;48.454;-2.058;2023-11-25T03:45:25;5.90;83.00
76613;DHT22;65507;48.454;-2.058;2023-11-25T03:47:51;5.90;82.90
76613;DHT22;65507;48.454;-2.058;2023-11-25T03:50:18;5.90;82.80
76613;DHT22;65507;48.454;-2.058;2023-11-25T03:52:44;5.90;82.70
76613;DHT22;65507;48.454;-2.058;2023-11-25T03:55:11;5.90;82.70
76613;DHT22;65507;48.454;-2.058;2023-11-25T03:57:38;5.80;82.70
76613;DHT22;65507;48.454;-2.058;2023-11-25T04:00:04;5.80;82.70
76613;DHT22;65507;48.454;-2.058;2023-11-25T04:02:41;5.80;82.80
76613;DHT22;65507;48.454;-2.058;2023-11-25T04:05:07;5.80;83.00
76613;DHT22;65507;48.454;-2.058;2023-11-25T04:07:32;5.80;83.00
76613;DHT22;65507;48.454;-2.058;2023-11-25T04:09:58;5.80;83.00
76613;DHT22;65507;48.454;-2.058;2023-11-25T04:12:24;5.80;82.90
76613;DHT22;65507;48.454;-2.058;2023-11-25T04:14:49;5.80;82.80
76613;DHT22;65507;48.454;-2.058;2023-11-25T04:17:16;6.00;83.70
76613;DHT22;65507;48.454;-2.058;2023-11-25T04:19:42;5.90;82.60
76613;DHT22;65507;48.454;-2.058;2023-11-25T04:22:07;5.90;82.50
76613;DHT22;65507;48.454;-2.058;2023-11-25T04:24:33;5.90;82.60
76613;DHT22;65507;48.454;-2.058;2023-11-25T04:26:59;5.80;82.60
76613;DHT22;65507;48.454;-2.058;2023-11-25T04:29:24;5.80;82.70
76613;DHT22;65507;48.454;-2.058;2023-11-25T04:31:50;5.80;82.70
76613;DHT22;65507;48.454;-2.058;2023-11-25T04:34:16;5.80;82.60
76613;DHT22;65507;48.454;-2.058;2023-11-25T04:36:42;5.70;82.70
76613;DHT22;65507;48.454;-2.058;2023-11-25T04:39:09;5.60;82.90
76613;DHT22;65507;48.454;-2.058;2023-11-25T04:41:39;5.60;83.10
76613;DHT22;65507;48.454;-2.058;2023-11-25T04:44:06;5.60;83.20
76613;DHT22;65507;48.454;-2.058;2023-11-25T04:46:31;5.80;83.40
76613;DHT22;65507;48.454;-2.058;2023-11-25T04:48:57;5.60;83.20
76613;DHT22;65507;48.454;-2.058;2023-11-25T04:51:23;5.70;83.20
76613;DHT22;65507;48.454;-2.058;2023-11-25T04:53:49;5.80;82.90
76613;DHT22;65507;48.454;-2.058;2023-11-25T04:56:14;5.70;82.70
76613;DHT22;65507;48.454;-2.058;2023-11-25T04:58:40;5.70;82.70
76613;DHT22;65507;48.454;-2.058;2023-11-25T05:01:07;5.60;82.90
76613;DHT22;65507;48.454;-2.058;2023-11-25T05:03:32;5.60;83.10
76613;DHT22;65507;48.454;-2.058;2023-11-25T05:05:59;5.50;83.10
76613;DHT22;65507;48.454;-2.058;2023-11-25T05:08:28;5.50;83.10
76613;DHT22;65507;48.454;-2.058;2023-11-25T05:10:53;5.50;83.10
76613;DHT22;65507;48.454;-2.058;2023-11-25T05:13:19;5.60;83.20
76613;DHT22;65507;48.454;-2.058;2023-11-25T05:15:46;5.60;83.20
76613;DHT22;65507;48.454;-2.058;2023-11-25T05:18:12;5.60;83.00
76613;DHT22;65507;48.454;-2.058;2023-11-25T05:20:38;5.60;83.00
76613;DHT22;65507;48.454;-2.058;2023-11-25T05:23:04;5.60;82.90
76613;DHT22;65507;48.454;-2.058;2023-11-25T05:25:30;5.60;82.80
76613;DHT22;65507;48.454;-2.058;2023-11-25T05:27:55;5.60;82.80
76613;DHT22;65507;48.454;-2.058;2023-11-25T05:30:21;5.60;82.80
76613;DHT22;65507;48.454;-2.058;2023-11-25T05:32:48;5.60;82.70
76613;DHT22;65507;48.454;-2.058;2023-11-25T05:35:14;5.60;82.70
76613;DHT22;65507;48.454;-2.058;2023-11-25T05:37:40;5.60;82.80
76613;DHT22;65507;48.454;-2.058;2023-11-25T05:40:08;5.60;83.00
76613;DHT22;65507;48.454;-2.058;2023-11-25T05:42:37;5.50;82.90
76613;DHT22;65507;48.454;-2.058;2023-11-25T05:45:07;5.60;82.90
76613;DHT22;65507;48.454;-2.058;2023-11-25T05:47:37;5.60;82.80
76613;DHT22;65507;48.454;-2.058;2023-11-25T05:50:03;5.70;82.80
76613;DHT22;65507;48.454;-2.058;2023-11-25T05:52:29;5.60;82.60
76613;DHT22;65507;48.454;-2.058;2023-11-25T05:54:55;5.60;82.70
76613;DHT22;65507;48.454;-2.058;2023-11-25T05:57:21;6.00;83.00
76613;DHT22;65507;48.454;-2.058;2023-11-25T05:59:47;5.60;82.80
76613;DHT22;65507;48.454;-2.058;2023-11-25T06:02:13;5.60;82.80
76613;DHT22;65507;48.454;-2.058;2023-11-25T06:04:39;5.50;82.80
76613;DHT22;65507;48.454;-2.058;2023-11-25T06:07:05;5.50;82.80
76613;DHT22;65507;48.454;-2.058;2023-11-25T06:09:30;5.50;82.80
76613;DHT22;65507;48.454;-2.058;2023-11-25T06:11:57;5.50;82.80
76613;DHT22;65507;48.454;-2.058;2023-11-25T06:14:23;5.50;82.80
76613;DHT22;65507;48.454;-2.058;2023-11-25T06:16:50;5.50;82.90
76613;DHT22;65507;48.454;-2.058;2023-11-25T06:19:19;5.50;83.00
76613;DHT22;65507;48.454;-2.058;2023-11-25T06:21:46;5.40;82.90
76613;DHT22;65507;48.454;-2.058;2023-11-25T06:24:16;5.40;83.00
76613;DHT22;65507;48.454;-2.058;2023-11-25T06:26:41;5.30;83.00
76613;DHT22;65507;48.454;-2.058;2023-11-25T06:29:07;5.30;83.00
76613;DHT22;65507;48.454;-2.058;2023-11-25T06:31:33;5.30;83.10
76613;DHT22;65507;48.454;-2.058;2023-11-25T06:34:01;5.30;83.20
76613;DHT22;65507;48.454;-2.058;2023-11-25T06:36:27;5.20;83.20
76613;DHT22;65507;48.454;-2.058;2023-11-25T06:38:53;5.40;83.40
76613;DHT22;65507;48.454;-2.058;2023-11-25T06:41:18;5.10;83.40
76613;DHT22;65507;48.454;-2.058;2023-11-25T06:43:49;5.10;83.40
76613;DHT22;65507;48.454;-2.058;2023-11-25T06:46:15;5.10;83.50
76613;DHT22;65507;48.454;-2.058;2023-11-25T06:48:41;5.00;83.50
76613;DHT22;65507;48.454;-2.058;2023-11-25T06:51:06;5.00;83.70
76613;DHT22;65507;48.454;-2.058;2023-11-25T06:53:32;4.90;83.70
76613;DHT22;65507;48.454;-2.058;2023-11-25T06:55:59;4.90;83.80
76613;DHT22;65507;48.454;-2.058;2023-11-25T06:58:24;4.90;83.80
76613;DHT22;65507;48.454;-2.058;2023-11-25T07:00:51;5.20;83.90
76613;DHT22;65507;48.454;-2.058;2023-11-25T07:03:17;4.90;83.70
76613;DHT22;65507;48.454;-2.058;2023-11-25T07:05:42;5.00;83.70
76613;DHT22;65507;48.454;-2.058;2023-11-25T07:08:09;5.00;83.40
76613;DHT22;65507;48.454;-2.058;2023-11-25T07:10:34;5.00;83.20
76613;DHT22;65507;48.454;-2.058;2023-11-25T07:13:04;5.00;83.20
76613;DHT22;65507;48.454;-2.058;2023-11-25T07:15:31;5.10;83.40
76613;DHT22;65507;48.454;-2.058;2023-11-25T07:17:57;5.30;83.50
76613;DHT22;65507;48.454;-2.058;2023-11-25T07:20:23;5.00;83.30
76613;DHT22;65507;48.454;-2.058;2023-11-25T07:22:49;5.10;83.10
76613;DHT22;65507;48.454;-2.058;2023-11-25T07:25:14;5.20;83.00
76613;DHT22;65507;48.454;-2.058;2023-11-25T07:27:44;5.20;82.60
76613;DHT22;65507;48.454;-2.058;2023-11-25T07:30:11;5.30;82.50
76613;DHT22;65507;48.454;-2.058;2023-11-25T07:32:37;5.30;82.40
76613;DHT22;65507;48.454;-2.058;2023-11-25T07:35:07;5.50;82.50
76613;DHT22;65507;48.454;-2.058;2023-11-25T07:37:36;5.30;82.30
76613;DHT22;65507;48.454;-2.058;2023-11-25T07:40:03;5.30;82.30
76613;DHT22;65507;48.454;-2.058;2023-11-25T07:42:29;5.20;82.10
76613;DHT22;65507;48.454;-2.058;2023-11-25T07:44:55;5.30;82.20
76613;DHT22;65507;48.454;-2.058;2023-11-25T07:47:21;5.30;82.40
76613;DHT22;65507;48.454;-2.058;2023-11-25T07:49:47;5.20;82.50
76613;DHT22;65507;48.454;-2.058;2023-11-25T07:52:14;5.20;82.70
76613;DHT22;65507;48.454;-2.058;2023-11-25T07:54:40;5.30;82.90
76613;DHT22;65507;48.454;-2.058;2023-11-25T07:57:07;6.10;83.40
76613;DHT22;65507;48.454;-2.058;2023-11-25T07:59:34;5.10;83.00
76613;DHT22;65507;48.454;-2.058;2023-11-25T08:02:00;5.10;83.10
76613;DHT22;65507;48.454;-2.058;2023-11-25T08:04:26;5.10;83.00
76613;DHT22;65507;48.454;-2.058;2023-11-25T08:06:52;5.20;83.00
76613;DHT22;65507;48.454;-2.058;2023-11-25T08:09:17;5.20;82.90
76613;DHT22;65507;48.454;-2.058;2023-11-25T08:11:46;5.30;82.90
76613;DHT22;65507;48.454;-2.058;2023-11-25T08:14:12;5.30;82.80
76613;DHT22;65507;48.454;-2.058;2023-11-25T08:16:39;5.30;82.70
76613;DHT22;65507;48.454;-2.058;2023-11-25T08:19:04;5.70;82.80
76613;DHT22;65507;48.454;-2.058;2023-11-25T08:21:30;5.30;82.60
76613;DHT22;65507;48.454;-2.058;2023-11-25T08:23:56;5.40;82.70
76613;DHT22;65507;48.454;-2.058;2023-11-25T08:26:23;5.40;82.70
76613;DHT22;65507;48.454;-2.058;2023-11-25T08:28:49;5.50;82.60
76613;DHT22;65507;48.454;-2.058;2023-11-25T08:31:15;5.50;82.50
76613;DHT22;65507;48.454;-2.058;2023-11-25T08:33:42;5.60;82.40
76613;DHT22;65507;48.454;-2.058;2023-11-25T08:36:10;5.70;82.40
76613;DHT22;65507;48.454;-2.058;2023-11-25T08:38:37;5.70;82.20
76613;DHT22;65507;48.454;-2.058;2023-11-25T08:41:03;5.90;82.10
76613;DHT22;65507;48.454;-2.058;2023-11-25T08:43:38;5.90;81.90
76613;DHT22;65507;48.454;-2.058;2023-11-25T08:46:05;6.00;81.80
76613;DHT22;65507;48.454;-2.058;2023-11-25T08:48:31;6.00;81.80
76613;DHT22;65507;48.454;-2.058;2023-11-25T08:50:56;6.10;81.80
76613;DHT22;65507;48.454;-2.058;2023-11-25T08:53:22;6.40;81.80
76613;DHT22;65507;48.454;-2.058;2023-11-25T08:55:49;6.30;81.70
76613;DHT22;65507;48.454;-2.058;2023-11-25T08:58:15;6.40;81.50
76613;DHT22;65507;48.454;-2.058;2023-11-25T09:00:41;6.50;81.30
76613;DHT22;65507;48.454;-2.058;2023-11-25T09:03:07;6.50;81.20
76613;DHT22;65507;48.454;-2.058;2023-11-25T09:05:34;6.60;81.30
76613;DHT22;65507;48.454;-2.058;2023-11-25T09:08:05;6.60;81.20
76613;DHT22;65507;48.454;-2.058;2023-11-25T09:10:33;7.00;81.20
76613;DHT22;65507;48.454;-2.058;2023-11-25T09:13:03;6.90;80.90
76613;DHT22;65507;48.454;-2.058;2023-11-25T09:15:29;7.10;80.60
76613;DHT22;65507;48.454;-2.058;2023-11-25T09:17:54;7.20;80.40
76613;DHT22;65507;48.454;-2.058;2023-11-25T09:20:20;7.30;80.20
76613;DHT22;65507;48.454;-2.058;2023-11-25T09:22:49;7.40;80.00
76613;DHT22;65507;48.454;-2.058;2023-11-25T09:25:16;7.60;79.80
76613;DHT22;65507;48.454;-2.058;2023-11-25T09:27:42;7.70;79.60
76613;DHT22;65507;48.454;-2.058;2023-11-25T09:30:10;7.80;79.50
76613;DHT22;65507;48.454;-2.058;2023-11-25T09:32:37;7.90;79.30
76613;DHT22;65507;48.454;-2.058;2023-11-25T09:35:04;8.00;79.10
76613;DHT22;65507;48.454;-2.058;2023-11-25T09:37:35;8.10;79.00
76613;DHT22;65507;48.454;-2.058;2023-11-25T09:40:00;8.30;78.80
76613;DHT22;65507;48.454;-2.058;2023-11-25T09:42:30;8.40;78.70
76613;DHT22;65507;48.454;-2.058;2023-11-25T09:45:00;8.50;78.50
76613;DHT22;65507;48.454;-2.058;2023-11-25T09:47:26;8.60;78.40
76613;DHT22;65507;48.454;-2.058;2023-11-25T09:49:52;8.70;78.30
76613;DHT22;65507;48.454;-2.058;2023-11-25T09:52:19;8.80;78.20
76613;DHT22;65507;48.454;-2.058;2023-11-25T09:54:48;8.90;78.00
76613;DHT22;65507;48.454;-2.058;2023-11-25T09:57:20;9.00;77.90
76613;DHT22;65507;48.454;-2.058;2023-11-25T09:59:46;9.10;77.90
76613;DHT22;65507;48.454;-2.058;2023-11-25T10:02:15;9.10;77.70
76613;DHT22;65507;48.454;-2.058;2023-11-25T10:04:42;9.20;77.60
76613;DHT22;65507;48.454;-2.058;2023-11-25T10:07:08;9.30;77.50
76613;DHT22;65507;48.454;-2.058;2023-11-25T10:09:40;9.30;77.50
76613;DHT22;65507;48.454;-2.058;2023-11-25T10:12:07;9.40;77.40
76613;DHT22;65507;48.454;-2.058;2023-11-25T10:14:40;9.40;77.40
76613;DHT22;65507;48.454;-2.058;2023-11-25T10:17:16;9.50;77.20
76613;DHT22;65507;48.454;-2.058;2023-11-25T10:19:44;9.60;78.00
76613;DHT22;65507;48.454;-2.058;2023-11-25T10:22:09;9.60;77.00
76613;DHT22;65507;48.454;-2.058;2023-11-25T10:24:44;9.70;77.00
76613;DHT22;65507;48.454;-2.058;2023-11-25T10:27:09;9.70;76.90
76613;DHT22;65507;48.454;-2.058;2023-11-25T10:29:35;9.70;76.90
76613;DHT22;65507;48.454;-2.058;2023-11-25T10:32:07;9.70;76.80
76613;DHT22;65507;48.454;-2.058;2023-11-25T10:34:34;9.80;76.70
76613;DHT22;65507;48.454;-2.058;2023-11-25T10:37:01;9.90;76.70
76613;DHT22;65507;48.454;-2.058;2023-11-25T10:39:32;9.90;76.60
76613;DHT22;65507;48.454;-2.058;2023-11-25T10:41:58;10.00;76.50
76613;DHT22;65507;48.454;-2.058;2023-11-25T10:44:24;10.00;76.50
76613;DHT22;65507;48.454;-2.058;2023-11-25T10:46:52;9.50;76.10
76613;DHT22;65507;48.454;-2.058;2023-11-25T10:49:21;10.00;76.40
76613;DHT22;65507;48.454;-2.058;2023-11-25T10:51:51;10.10;76.40
76613;DHT22;65507;48.454;-2.058;2023-11-25T10:54:22;10.10;76.20
76613;DHT22;65507;48.454;-2.058;2023-11-25T10:56:53;10.10;76.20
76613;DHT22;65507;48.454;-2.058;2023-11-25T10:59:20;10.20;76.30
76613;DHT22;65507;48.454;-2.058;2023-11-25T11:01:50;10.20;76.20
76613;DHT22;65507;48.454;-2.058;2023-11-25T11:04:35;10.30;76.20
76613;DHT22;65507;48.454;-2.058;2023-11-25T11:07:02;10.30;76.00
76613;DHT22;65507;48.454;-2.058;2023-11-25T11:09:32;10.30;76.50
76613;DHT22;65507;48.454;-2.058;2023-11-25T11:14:58;10.40;75.70
76613;DHT22;65507;48.454;-2.058;2023-11-25T11:17:48;10.50;75.80
76613;DHT22;65507;48.454;-2.058;2023-11-25T11:20:18;10.50;75.70
76613;DHT22;65507;48.454;-2.058;2023-11-25T11:22:47;10.50;75.90
76613;DHT22;65507;48.454;-2.058;2023-11-25T11:28:00;10.50;75.80
76613;DHT22;65507;48.454;-2.058;2023-11-25T11:32:58;10.50;75.70
76613;DHT22;65507;48.454;-2.058;2023-11-25T11:35:37;10.50;75.70
76613;DHT22;65507;48.454;-2.058;2023-11-25T11:38:22;10.50;75.50
76613;DHT22;65507;48.454;-2.058;2023-11-25T11:40:50;10.50;75.50
76613;DHT22;65507;48.454;-2.058;2023-11-25T11:43:19;10.50;75.60
76613;DHT22;65507;48.454;-2.058;2023-11-25T11:45:45;10.50;75.60
76613;DHT22;65507;48.454;-2.058;2023-11-25T11:48:13;10.40;75.70
76613;DHT22;65507;48.454;-2.058;2023-11-25T11:50:42;10.40;75.70
76613;DHT22;65507;48.454;-2.058;2023-11-25T11:55:51;10.30;75.80
76613;DHT22;65507;48.454;-2.058;2023-11-25T11:58:24;10.20;75.70
76613;DHT22;65507;48.454;-2.058;2023-11-25T12:01:06;10.20;75.70
76613;DHT22;65507;48.454;-2.058;2023-11-25T12:03:34;10.20;75.60
76613;DHT22;65507;48.454;-2.058;2023-11-25T12:06:02;10.20;75.70
76613;DHT22;65507;48.454;-2.058;2023-11-25T12:08:28;10.20;75.60
76613;DHT22;65507;48.454;-2.058;2023-11-25T12:10:56;10.20;76.50
76613;DHT22;65507;48.454;-2.058;2023-11-25T12:13:29;10.20;75.50
76613;DHT22;65507;48.454;-2.058;2023-11-25T12:15:56;10.30;75.30
76613;DHT22;65507;48.454;-2.058;2023-11-25T12:18:32;10.40;75.10
76613;DHT22;65507;48.454;-2.058;2023-11-25T12:20:59;10.50;74.80
76613;DHT22;65507;48.454;-2.058;2023-11-25T12:23:30;10.50;74.60
76613;DHT22;65507;48.454;-2.058;2023-11-25T12:25:57;10.60;74.50
76613;DHT22;65507;48.454;-2.058;2023-11-25T12:28:23;10.60;74.30
76613;DHT22;65507;48.454;-2.058;2023-11-25T12:30:49;10.60;74.20
76613;DHT22;65507;48.454;-2.058;2023-11-25T12:33:14;10.70;74.30
76613;DHT22;65507;48.454;-2.058;2023-11-25T12:35:41;10.70;74.20
76613;DHT22;65507;48.454;-2.058;2023-11-25T12:38:09;10.80;74.10
76613;DHT22;65507;48.454;-2.058;2023-11-25T12:40:36;10.90;74.10
76613;DHT22;65507;48.454;-2.058;2023-11-25T12:43:05;10.90;73.70
76613;DHT22;65507;48.454;-2.058;2023-11-25T12:45:42;11.00;73.70
76613;DHT22;65507;48.454;-2.058;2023-11-25T12:48:10;10.90;73.60
76613;DHT22;65507;48.454;-2.058;2023-11-25T12:51:03;11.00;73.70
76613;DHT22;65507;48.454;-2.058;2023-11-25T12:53:33;11.00;73.30
76613;DHT22;65507;48.454;-2.058;2023-11-25T12:56:02;11.00;73.60
76613;DHT22;65507;48.454;-2.058;2023-11-25T12:58:28;11.00;73.60
76613;DHT22;65507;48.454;-2.058;2023-11-25T13:00:55;11.00;73.50
76613;DHT22;65507;48.454;-2.058;2023-11-25T13:03:26;11.00;73.30
76613;DHT22;65507;48.454;-2.058;2023-11-25T13:06:03;11.10;73.30
76613;DHT22;65507;48.454;-2.058;2023-11-25T13:08:33;11.00;73.20
76613;DHT22;65507;48.454;-2.058;2023-11-25T13:11:04;10.80;73.50
76613;DHT22;65507;48.454;-2.058;2023-11-25T13:13:31;10.70;73.70
76613;DHT22;65507;48.454;-2.058;2023-11-25T13:15:57;10.70;73.90
76613;DHT22;65507;48.454;-2.058;2023-11-25T13:18:24;10.70;73.80
76613;DHT22;65507;48.454;-2.058;2023-11-25T13:20:51;10.80;73.80
76613;DHT22;65507;48.454;-2.058;2023-11-25T13:23:18;10.90;73.60
76613;DHT22;65507;48.454;-2.058;2023-11-25T13:25:50;10.90;73.30
76613;DHT22;65507;48.454;-2.058;2023-11-25T13:28:19;11.00;73.20
76613;DHT22;65507;48.454;-2.058;2023-11-25T13:30:45;11.10;73.10
76613;DHT22;65507;48.454;-2.058;2023-11-25T13:33:12;11.00;73.10
76613;DHT22;65507;48.454;-2.058;2023-11-25T13:35:40;11.00;73.10
76613;DHT22;65507;48.454;-2.058;2023-11-25T13:38:08;11.00;73.00
76613;DHT22;65507;48.454;-2.058;2023-11-25T13:40:35;11.10;72.90
76613;DHT22;65507;48.454;-2.058;2023-11-25T13:43:07;11.10;73.10
76613;DHT22;65507;48.454;-2.058;2023-11-25T13:45:34;11.10;72.90
76613;DHT22;65507;48.454;-2.058;2023-11-25T13:48:01;11.00;72.80
76613;DHT22;65507;48.454;-2.058;2023-11-25T13:50:30;11.00;72.70
76613;DHT22;65507;48.454;-2.058;2023-11-25T13:52:56;10.90;72.80
76613;DHT22;65507;48.454;-2.058;2023-11-25T13:55:22;11.00;72.70
76613;DHT22;65507;48.454;-2.058;2023-11-25T13:57:52;11.00;72.70
76613;DHT22;65507;48.454;-2.058;2023-11-25T14:00:18;11.00;72.60
76613;DHT22;65507;48.454;-2.058;2023-11-25T14:02:47;10.80;72.60
76613;DHT22;65507;48.454;-2.058;2023-11-25T14:05:13;10.70;72.80
76613;DHT22;65507;48.454;-2.058;2023-11-25T14:07:42;10.70;72.90
76613;DHT22;65507;48.454;-2.058;2023-11-25T14:10:11;10.70;72.90
76613;DHT22;65507;48.454;-2.058;2023-11-25T14:12:40;10.60;72.80
76613;DHT22;65507;48.454;-2.058;2023-11-25T14:15:08;10.60;72.90
76613;DHT22;65507;48.454;-2.058;2023-11-25T14:17:35;10.50;73.00
76613;DHT22;65507;48.454;-2.058;2023-11-25T14:20:03;10.60;73.00
76613;DHT22;65507;48.454;-2.058;2023-11-25T14:22:39;10.60;72.80
76613;DHT22;65507;48.454;-2.058;2023-11-25T14:25:05;10.60;72.80
76613;DHT22;65507;48.454;-2.058;2023-11-25T14:27:33;10.70;72.60
76613;DHT22;65507;48.454;-2.058;2023-11-25T14:29:59;10.80;72.50
76613;DHT22;65507;48.454;-2.058;2023-11-25T14:32:25;10.80;72.30
76613;DHT22;65507;48.454;-2.058;2023-11-25T14:34:50;10.90;72.10
76613;DHT22;65507;48.454;-2.058;2023-11-25T14:37:16;10.90;72.00
76613;DHT22;65507;48.454;-2.058;2023-11-25T14:39:42;10.90;71.90
76613;DHT22;65507;48.454;-2.058;2023-11-25T14:42:07;11.00;72.20
76613;DHT22;65507;48.454;-2.058;2023-11-25T14:44:34;10.90;72.00
76613;DHT22;65507;48.454;-2.058;2023-11-25T14:47:00;10.90;72.10
76613;DHT22;65507;48.454;-2.058;2023-11-25T14:49:25;10.90;72.00
76613;DHT22;65507;48.454;-2.058;2023-11-25T14:51:51;10.90;72.10
76613;DHT22;65507;48.454;-2.058;2023-11-25T14:54:20;10.80;72.20
76613;DHT22;65507;48.454;-2.058;2023-11-25T14:56:46;10.70;72.40
76613;DHT22;65507;48.454;-2.058;2023-11-25T14:59:14;10.70;72.50
76613;DHT22;65507;48.454;-2.058;2023-11-25T15:01:41;10.70;72.40
76613;DHT22;65507;48.454;-2.058;2023-11-25T15:04:07;10.70;72.30
76613;DHT22;65507;48.454;-2.058;2023-11-25T15:06:36;10.60;72.40
76613;DHT22;65507;48.454;-2.058;2023-11-25T15:09:03;10.60;72.50
76613;DHT22;65507;48.454;-2.058;2023-11-25T15:11:28;10.60;72.40
76613;DHT22;65507;48.454;-2.058;2023-11-25T15:13:54;10.60;72.40
76613;DHT22;65507;48.454;-2.058;2023-11-25T15:16:20;10.60;72.40
76613;DHT22;65507;48.454;-2.058;2023-11-25T15:18:45;10.60;72.40
76613;DHT22;65507;48.454;-2.058;2023-11-25T15:21:16;10.60;72.40
76613;DHT22;65507;48.454;-2.058;2023-11-25T15:23:43;10.60;72.40
76613;DHT22;65507;48.454;-2.058;2023-11-25T15:26:09;10.60;72.40
76613;DHT22;65507;48.454;-2.058;2023-11-25T15:28:39;10.60;72.40
76613;DHT22;65507;48.454;-2.058;2023-11-25T15:31:11;10.60;72.30
76613;DHT22;65507;48.454;-2.058;2023-11-25T15:33:38;10.50;72.30
76613;DHT22;65507;48.454;-2.058;2023-11-25T15:36:07;10.50;72.50
76613;DHT22;65507;48.454;-2.058;2023-11-25T15:38:34;10.50;72.50